Time;durP1;ratioP1;P1;durP2;ratioP2;P2;SDS_P1;SDS_P2;PMS_P1;PMS_P2;Temp;Humidity;BMP_temperature;BMP_pressure;BME280_temperature;BME280_humidity;BME280_pressure;Samples;Min_cycle;Max_cycle;Signal;HPM_P1;HPM_P2
2023/03/29 00:00:12;;;;;;;;;;;;;;;3.25;48.85;100013.38;5093109;28;19939;-41
2023/03/29 00:02:38;;;;;;;;;;;;;;;3.26;49.51;100014.22;5092998;28;19918;-41
2023/03/29 00:05:05;;;;;;;;;;;;;;;3.46;48.95;100014.88;5092875;28;20318;-41
2023/03/29 00:07:34;;;;;;;;;;;;;;;3.62;48.49;100016.84;5093147;28;19916;-41
2023/03/29 00:10:00;;;;;;;;;;;;;;;3.57;48.41;100014.66;5093068;28;19912;-41
2023/03/29 00:12:25;;;;;;;;;;;;;;;3.19;49.64;100023.66;5092800;28;20229;-41
2023/03/29 00:14:51;;;;;;;;;;;;;;;3.56;49.61;100010.38;5092631;28;19912;-41
2023/03/29 00:17:16;;;;;;;;;;;;;;;3.22;49.40;100011.06;5092645;28;19958;-41
2023/03/29 00:19:42;;;;;;;;;;;;;;;3.17;50.06;100021.19;5092663;28;20344;-41
2023/03/29 00:22:07;;;;;;;;;;;;;;;3.18;49.83;100016.75;5092341;28;19912;-41
2023/03/29 00:24:33;;;;;;;;;;;;;;;2.98;50.80;100027.41;5092153;28;19916;-41
2023/03/29 00:26:58;;;;;;;;;;;;;;;3.08;49.63;100025.53;5092420;28;20384;-41
2023/03/29 00:29:23;;;;;;;;;;;;;;;3.38;49.53;100035.88;5092307;28;20008;-40
2023/03/29 00:31:52;;;;;;;;;;;;;;;3.35;49.52;100029.09;5092506;28;19919;-40
2023/03/29 00:34:19;;;;;;;;;;;;;;;3.14;49.47;100037.25;5092507;28;19912;-40
2023/03/29 00:36:44;;;;;;;;;;;;;;;3.35;48.88;100046.69;5092338;28;19912;-40
2023/03/29 00:39:10;;;;;;;;;;;;;;;3.85;47.95;100040.88;5092343;28;20418;-40
2023/03/29 00:41:35;;;;;;;;;;;;;;;3.78;48.06;100043.28;5092295;28;19919;-41
2023/03/29 00:44:02;;;;;;;;;;;;;;;3.78;47.50;100051.19;5092176;28;19998;-40
2023/03/29 00:46:29;;;;;;;;;;;;;;;3.13;49.45;100046.13;5091959;28;19916;-41
2023/03/29 00:48:57;;;;;;;;;;;;;;;3.46;48.47;100046.47;5091717;28;20383;-40
2023/03/29 00:51:24;;;;;;;;;;;;;;;3.06;49.07;100047.69;5092033;28;19919;-40
2023/03/29 00:53:52;;;;;;;;;;;;;;;2.81;49.32;99994.00;5091956;28;20003;-40
2023/03/29 00:56:23;;;;;;;;;;;;;;;3.30;49.13;100053.22;5091770;28;19934;-40
2023/03/29 00:58:50;;;;;;;;;;;;;;;2.93;49.40;100045.41;5092009;28;19999;-41
2023/03/29 01:01:19;;;;;;;;;;;;;;;3.07;49.70;100055.44;5091733;28;19916;-40
2023/03/29 01:03:48;;;;;;;;;;;;;;;2.98;49.80;100061.56;5091640;28;19918;-40
2023/03/29 01:06:15;;;;;;;;;;;;;;;2.90;50.13;100061.47;5091829;28;20364;-40
2023/03/29 01:08:44;;;;;;;;;;;;;;;3.01;50.09;100063.06;5091681;28;19958;-40
2023/03/29 01:11:26;;;;;;;;;;;;;;;3.15;49.31;100069.66;5091771;28;19913;-40
2023/03/29 01:13:58;;;;;;;;;;;;;;;3.02;48.89;100075.25;5091562;28;19973;-40
2023/03/29 01:16:25;;;;;;;;;;;;;;;2.88;48.99;100064.25;5090103;28;20298;-41
2023/03/29 01:18:51;;;;;;;;;;;;;;;3.05;49.43;100074.97;5091935;28;19918;-41
2023/03/29 01:21:22;;;;;;;;;;;;;;;3.13;49.56;100072.44;5091196;28;19991;-40
2023/03/29 01:23:49;;;;;;;;;;;;;;;3.25;48.62;100068.59;5091109;28;19927;-41
2023/03/29 01:26:38;;;;;;;;;;;;;;;2.92;50.03;100057.72;5091246;28;20015;-41
2023/03/29 01:29:10;;;;;;;;;;;;;;;2.59;50.06;100056.50;5088384;28;20328;-40
2023/03/29 01:31:38;;;;;;;;;;;;;;;2.97;49.69;100066.97;5091134;28;19919;-40
2023/03/29 01:34:09;;;;;;;;;;;;;;;2.82;49.19;100064.00;5091386;28;20324;-40
2023/03/29 01:36:38;;;;;;;;;;;;;;;2.72;49.60;100035.13;5091384;28;19912;-40
2023/03/29 01:39:04;;;;;;;;;;;;;;;2.73;49.24;100061.28;5091361;28;19977;-41
2023/03/29 01:41:33;;;;;;;;;;;;;;;3.01;49.10;100065.69;5091399;28;20359;-40
2023/03/29 01:44:03;;;;;;;;;;;;;;;3.24;48.59;100056.44;5090458;28;19912;-41
2023/03/29 01:46:29;;;;;;;;;;;;;;;3.20;48.64;100059.50;5091165;28;19916;-40
2023/03/29 01:49:00;;;;;;;;;;;;;;;2.85;49.09;100059.28;5091448;28;20020;-40
2023/03/29 01:51:37;;;;;;;;;;;;;;;2.69;49.90;100053.84;5091293;28;19916;-41
2023/03/29 01:54:08;;;;;;;;;;;;;;;2.67;49.69;100064.50;5091430;28;20001;-40
2023/03/29 01:56:36;;;;;;;;;;;;;;;2.64;50.37;100071.81;5090931;28;20008;-41
2023/03/29 01:59:07;;;;;;;;;;;;;;;2.82;49.40;100069.25;5091059;28;19923;-41
2023/03/29 02:01:41;;;;;;;;;;;;;;;2.66;49.31;100075.13;5091019;28;20003;-41
2023/03/29 02:04:09;;;;;;;;;;;;;;;2.76;49.01;100081.19;5090784;28;20004;-41
2023/03/29 02:06:34;;;;;;;;;;;;;;;2.85;47.85;100092.63;5090985;28;19916;-41
2023/03/29 02:09:00;;;;;;;;;;;;;;;2.96;47.81;100097.69;5090865;28;20292;-41
2023/03/29 02:11:28;;;;;;;;;;;;;;;2.93;48.12;100085.69;5091327;28;19924;-41
2023/03/29 02:13:53;;;;;;;;;;;;;;;2.87;48.10;100078.34;5090647;28;20003;-40
2023/03/29 02:16:19;;;;;;;;;;;;;;;2.93;48.14;100083.06;5090942;28;20007;-40
2023/03/29 02:18:46;;;;;;;;;;;;;;;3.08;48.43;100083.38;5091042;28;19912;-41
2023/03/29 02:21:20;;;;;;;;;;;;;;;3.16;48.06;100106.34;5090870;28;19916;-41
2023/03/29 02:23:47;;;;;;;;;;;;;;;2.94;48.73;100103.09;5090650;28;19927;-41
2023/03/29 02:26:13;;;;;;;;;;;;;;;2.98;49.13;100101.00;5100756;28;20053;-40
2023/03/29 02:28:39;;;;;;;;;;;;;;;2.29;50.64;100128.47;5095170;28;19912;-41
2023/03/29 02:31:10;;;;;;;;;;;;;;;2.49;50.08;100116.94;5090663;28;20385;-40
2023/03/29 02:33:36;;;;;;;;;;;;;;;2.46;49.82;100122.50;5090698;28;19992;-41
2023/03/29 02:36:14;;;;;;;;;;;;;;;2.60;49.48;100115.94;5090721;28;20357;-41
2023/03/29 02:38:40;;;;;;;;;;;;;;;2.35;50.44;100131.34;5090601;28;19912;-40
2023/03/29 02:41:06;;;;;;;;;;;;;;;2.49;49.97;100121.38;5090766;28;19912;-40
2023/03/29 02:43:33;;;;;;;;;;;;;;;2.46;49.38;100137.44;5090448;28;19916;-41
2023/03/29 02:45:59;;;;;;;;;;;;;;;2.53;49.16;100135.88;5090178;28;20010;-41
2023/03/29 02:48:26;;;;;;;;;;;;;;;2.82;48.39;100130.56;5090525;28;19958;-40
2023/03/29 02:50:53;;;;;;;;;;;;;;;2.89;48.38;100122.91;5090365;28;19973;-40
2023/03/29 02:53:21;;;;;;;;;;;;;;;2.39;48.55;100131.09;5090291;28;20331;-41
2023/03/29 02:55:47;;;;;;;;;;;;;;;2.50;48.59;100128.31;5091691;28;20336;-41
2023/03/29 02:58:14;;;;;;;;;;;;;;;2.41;48.31;100134.41;5094284;28;19912;-40
2023/03/29 03:00:41;;;;;;;;;;;;;;;2.40;48.63;100137.97;5094513;28;19919;-40
2023/03/29 03:03:08;;;;;;;;;;;;;;;2.70;47.35;100135.16;5093983;28;19989;-40
2023/03/29 03:05:33;;;;;;;;;;;;;;;2.34;48.19;100139.38;5093640;28;20381;-40
2023/03/29 03:07:59;;;;;;;;;;;;;;;2.33;47.70;100140.34;5094814;28;20424;-40
2023/03/29 03:10:24;;;;;;;;;;;;;;;2.64;47.89;100142.78;5114199;28;19919;-41
2023/03/29 03:12:49;;;;;;;;;;;;;;;2.37;48.47;100144.34;5114084;27;20008;-40
2023/03/29 03:15:15;;;;;;;;;;;;;;;2.42;48.22;100149.16;5114310;28;20014;-41
2023/03/29 03:17:40;;;;;;;;;;;;;;;2.23;48.94;100150.03;5108929;28;20014;-40
2023/03/29 03:20:09;;;;;;;;;;;;;;;2.38;48.55;100151.28;5092198;28;20245;-36
2023/03/29 03:22:34;;;;;;;;;;;;;;;2.40;48.65;100164.25;5093261;28;19920;-35
2023/03/29 03:25:00;;;;;;;;;;;;;;;2.59;47.82;100147.63;5093191;28;20358;-35
2023/03/29 03:27:25;;;;;;;;;;;;;;;2.40;48.15;100169.50;5093218;28;19994;-36
2023/03/29 03:29:51;;;;;;;;;;;;;;;2.40;48.36;100164.25;5093288;28;20362;-35
2023/03/29 03:32:16;;;;;;;;;;;;;;;2.41;48.57;100165.91;5093382;28;20395;-35
2023/03/29 03:34:42;;;;;;;;;;;;;;;2.48;48.50;100175.72;5093928;28;19916;-35
2023/03/29 03:37:07;;;;;;;;;;;;;;;2.34;49.19;100174.38;5093372;28;20435;-36
2023/03/29 03:39:32;;;;;;;;;;;;;;;2.21;48.89;100175.59;5093517;28;19920;-35
2023/03/29 03:41:58;;;;;;;;;;;;;;;2.03;50.01;100184.16;5093224;28;19912;-36
2023/03/29 03:44:23;;;;;;;;;;;;;;;2.19;49.62;100180.16;5092197;28;19927;-36
2023/03/29 03:46:48;;;;;;;;;;;;;;;2.20;49.08;100176.59;5091859;28;20011;-35
2023/03/29 03:49:14;;;;;;;;;;;;;;;2.08;49.42;100183.78;5091908;28;19916;-35
2023/03/29 03:51:41;;;;;;;;;;;;;;;2.12;49.71;100182.53;5091806;28;19920;-36
2023/03/29 03:54:06;;;;;;;;;;;;;;;2.32;48.90;100185.97;5091718;28;19913;-35
2023/03/29 03:56:33;;;;;;;;;;;;;;;2.40;48.95;100174.75;5091695;28;19927;-36
2023/03/29 03:58:58;;;;;;;;;;;;;;;2.19;49.62;100190.66;5092873;28;19912;-37
2023/03/29 04:01:26;;;;;;;;;;;;;;;2.43;48.64;100195.50;5092853;28;20299;-35
2023/03/29 04:03:51;;;;;;;;;;;;;;;2.47;48.25;100181.94;5092927;28;19912;-35
2023/03/29 04:06:17;;;;;;;;;;;;;;;2.28;49.55;100187.22;5093050;28;19916;-35
2023/03/29 04:08:42;;;;;;;;;;;;;;;2.15;49.34;100190.97;5092264;28;19919;-35
2023/03/29 04:11:08;;;;;;;;;;;;;;;2.12;49.33;100195.66;5092472;28;19912;-35
2023/03/29 04:13:33;;;;;;;;;;;;;;;2.07;49.23;100196.06;5092223;28;19916;-36
2023/03/29 04:15:59;;;;;;;;;;;;;;;1.96;49.66;100188.31;5091911;28;20016;-36
2023/03/29 04:18:25;;;;;;;;;;;;;;;2.15;49.37;100197.97;5091912;28;20318;-37
2023/03/29 04:20:50;;;;;;;;;;;;;;;2.26;49.21;100202.28;5091829;28;20420;-34
2023/03/29 04:23:16;;;;;;;;;;;;;;;2.31;49.10;100205.34;5091525;28;19920;-35
2023/03/29 04:25:41;;;;;;;;;;;;;;;2.42;48.80;100192.06;5091715;28;20340;-37
2023/03/29 04:28:08;;;;;;;;;;;;;;;2.62;48.06;100200.72;5091713;28;19923;-36
2023/03/29 04:30:33;;;;;;;;;;;;;;;2.40;49.00;100206.28;5091654;28;19912;-36
2023/03/29 04:32:59;;;;;;;;;;;;;;;2.68;48.16;100215.94;5091196;28;19912;-36
2023/03/29 04:35:24;;;;;;;;;;;;;;;4.45;47.32;100199.06;5091480;28;19946;-36
2023/03/29 04:37:51;;;;;;;;;;;;;;;4.35;44.90;100211.53;5091370;28;19912;-36
2023/03/29 04:40:18;;;;;;;;;;;;;;;4.54;44.47;100209.69;5090860;28;19912;-35
2023/03/29 04:42:44;;;;;;;;;;;;;;;4.31;44.36;100218.88;5091222;28;20007;-34
2023/03/29 04:45:12;;;;;;;;;;;;;;;4.14;44.88;100224.16;5090924;28;20382;-37
2023/03/29 04:47:38;;;;;;;;;;;;;;;4.24;44.67;100222.28;5091074;28;20240;-36
2023/03/29 04:50:04;;;;;;;;;;;;;;;3.92;45.00;100221.81;5090917;28;19916;-35
2023/03/29 04:52:31;;;;;;;;;;;;;;;4.19;44.46;100232.44;5089480;28;20268;-35
2023/03/29 04:54:57;;;;;;;;;;;;;;;4.24;44.45;100232.81;5091415;28;19912;-42
2023/03/29 04:57:22;;;;;;;;;;;;;;;4.56;44.66;100224.38;5090262;28;20398;-42
2023/03/29 04:59:47;;;;;;;;;;;;;;;4.64;43.80;100220.97;5090646;28;19912;-42
2023/03/29 05:02:13;;;;;;;;;;;;;;;4.68;43.29;100219.69;5091305;28;20417;-44
2023/03/29 05:04:38;;;;;;;;;;;;;;;4.80;42.88;100217.66;5091635;28;19919;-42
2023/03/29 05:07:05;;;;;;;;;;;;;;;5.37;42.27;100231.16;5091320;28;19955;-42
2023/03/29 05:09:30;;;;;;;;;;;;;;;5.61;42.29;100225.16;5091287;28;19912;-42
2023/03/29 05:11:56;;;;;;;;;;;;;;;5.45;41.82;100235.66;5091542;28;20388;-42
2023/03/29 05:14:22;;;;;;;;;;;;;;;4.75;42.76;100233.91;5091505;28;20546;-41
2023/03/29 05:16:47;;;;;;;;;;;;;;;5.64;42.16;100234.59;5091605;28;19955;-42
2023/03/29 05:19:12;;;;;;;;;;;;;;;6.05;40.58;100240.00;5090623;28;20399;-42
2023/03/29 05:21:37;;;;;;;;;;;;;;;6.63;39.62;100244.38;5091391;28;19919;-41
2023/03/29 05:24:03;;;;;;;;;;;;;;;6.83;39.53;100246.66;5090811;28;20262;-41
2023/03/29 05:26:29;;;;;;;;;;;;;;;6.62;39.29;100255.94;5091045;28;19924;-41
2023/03/29 05:28:54;;;;;;;;;;;;;;;6.66;39.32;100248.50;5090643;28;19998;-42
2023/03/29 05:31:19;;;;;;;;;;;;;;;6.77;39.43;100232.28;5089507;28;20387;-42
2023/03/29 05:33:48;;;;;;;;;;;;;;;6.55;40.66;100241.72;5090224;28;19911;-42
2023/03/29 05:36:14;;;;;;;;;;;;;;;7.47;38.52;100237.94;5090384;28;19940;-42
2023/03/29 05:38:40;;;;;;;;;;;;;;;6.95;38.28;100250.63;5090727;28;19962;-41
2023/03/29 05:41:05;;;;;;;;;;;;;;;6.93;38.46;100242.03;5090966;28;20069;-44
2023/03/29 05:43:31;;;;;;;;;;;;;;;6.88;39.38;100249.66;5090787;28;19980;-41
2023/03/29 05:45:57;;;;;;;;;;;;;;;7.78;38.06;100253.88;5090614;28;19940;-42
2023/03/29 05:48:22;;;;;;;;;;;;;;;7.31;37.67;100255.53;5091000;28;20409;-42
2023/03/29 05:50:52;;;;;;;;;;;;;;;8.25;37.28;100263.56;5090763;28;19952;-44
2023/03/29 05:53:18;;;;;;;;;;;;;;;8.11;36.75;100264.28;5090618;28;19912;-41
2023/03/29 05:55:43;;;;;;;;;;;;;;;7.89;36.42;100253.47;5090709;28;19999;-43
2023/03/29 05:58:11;;;;;;;;;;;;;;;8.31;36.32;100256.72;5090948;28;19950;-43
2023/03/29 06:00:37;;;;;;;;;;;;;;;8.00;36.50;100262.88;5091163;28;19918;-42
2023/03/29 06:03:03;;;;;;;;;;;;;;;8.10;36.37;100250.22;5090561;28;20003;-42
2023/03/29 06:05:28;;;;;;;;;;;;;;;8.67;35.38;100259.63;5090531;28;20031;-42
2023/03/29 06:07:55;;;;;;;;;;;;;;;7.78;36.11;100254.69;5090342;28;19915;-42
2023/03/29 06:10:20;;;;;;;;;;;;;;;8.67;35.61;100253.50;5090427;28;19912;-41
2023/03/29 06:12:46;;;;;;;;;;;;;;;8.61;34.74;100263.00;5090448;28;20373;-42
2023/03/29 06:15:13;;;;;;;;;;;;;;;8.78;33.96;100253.09;5090776;28;19969;-43
2023/03/29 06:17:38;;;;;;;;;;;;;;;8.98;34.05;100275.44;5090786;28;19923;-42
2023/03/29 06:20:09;;;;;;;;;;;;;;;8.88;33.18;100264.25;5090379;28;19912;-42
2023/03/29 06:22:35;;;;;;;;;;;;;;;9.14;33.11;100273.66;5090453;28;19921;-42
2023/03/29 06:25:01;;;;;;;;;;;;;;;9.67;32.64;100273.56;5091091;28;19988;-43
2023/03/29 06:27:26;;;;;;;;;;;;;;;9.89;31.47;100261.19;5090209;28;19985;-43
2023/03/29 06:29:52;;;;;;;;;;;;;;;9.28;31.69;100278.16;5091075;28;20461;-43
2023/03/29 06:32:18;;;;;;;;;;;;;;;9.51;31.70;100283.38;5094814;28;20382;-43
2023/03/29 06:34:44;;;;;;;;;;;;;;;9.34;31.84;100281.91;5094436;28;19981;-42
2023/03/29 06:37:09;;;;;;;;;;;;;;;9.57;30.96;100289.78;5094547;28;20406;-42
2023/03/29 06:39:34;;;;;;;;;;;;;;;8.97;31.02;100286.25;5094672;28;20348;-43
2023/03/29 06:41:59;;;;;;;;;;;;;;;9.16;30.53;100292.91;5094407;28;19912;-42
2023/03/29 06:44:27;;;;;;;;;;;;;;;9.35;30.70;100297.69;5094169;28;19923;-44
2023/03/29 06:46:52;;;;;;;;;;;;;;;9.32;30.06;100311.31;5094245;28;19953;-42
2023/03/29 06:49:18;;;;;;;;;;;;;;;9.62;30.08;100300.72;5094001;28;19912;-42
2023/03/29 06:51:43;;;;;;;;;;;;;;;9.81;28.85;100303.81;5093994;28;19958;-44
2023/03/29 06:54:09;;;;;;;;;;;;;;;9.19;29.96;100293.38;5094062;28;20372;-41
2023/03/29 06:56:34;;;;;;;;;;;;;;;9.55;29.62;100294.47;5094082;28;19912;-42
2023/03/29 06:58:59;;;;;;;;;;;;;;;9.15;30.32;100286.72;5094073;28;19920;-43
2023/03/29 07:01:25;;;;;;;;;;;;;;;10.02;29.91;100300.41;5094007;28;19962;-42
2023/03/29 07:03:51;;;;;;;;;;;;;;;10.16;28.78;100318.16;5093766;28;19912;-42
2023/03/29 07:06:19;;;;;;;;;;;;;;;9.73;29.23;100321.50;5094207;28;20284;-42
2023/03/29 07:08:46;;;;;;;;;;;;;;;9.37;30.20;100311.59;5094076;28;19920;-43
2023/03/29 07:11:13;;;;;;;;;;;;;;;10.37;29.79;100312.06;5094002;28;19920;-42
2023/03/29 07:13:41;;;;;;;;;;;;;;;10.11;29.16;100302.78;5093499;28;19913;-43
2023/03/29 07:16:07;;;;;;;;;;;;;;;9.85;28.55;100308.56;5093754;28;19912;-42
2023/03/29 07:18:32;;;;;;;;;;;;;;;10.42;27.86;100311.53;5093905;28;19920;-43
2023/03/29 07:20:57;;;;;;;;;;;;;;;10.62;27.51;100306.41;5093692;28;19912;-42
2023/03/29 07:23:23;;;;;;;;;;;;;;;11.14;27.87;100311.38;5093452;28;19920;-43
2023/03/29 07:25:49;;;;;;;;;;;;;;;10.75;26.73;100296.69;5093592;28;20218;-42
2023/03/29 07:28:14;;;;;;;;;;;;;;;11.06;27.49;100319.50;5093398;28;19916;-45
2023/03/29 07:30:39;;;;;;;;;;;;;;;11.02;27.31;100302.25;5093392;28;19940;-43
2023/03/29 07:33:05;;;;;;;;;;;;;;;10.23;27.06;100304.94;5093090;28;20003;-43
2023/03/29 07:35:31;;;;;;;;;;;;;;;10.58;26.83;100297.97;5093188;28;20267;-42
2023/03/29 07:37:57;;;;;;;;;;;;;;;11.46;25.87;100289.63;5092990;28;19912;-41
2023/03/29 07:40:22;;;;;;;;;;;;;;;11.27;26.16;100307.97;5093030;28;20236;-42
2023/03/29 07:42:50;;;;;;;;;;;;;;;10.64;25.60;100297.22;5092035;28;19977;-41
2023/03/29 07:45:15;;;;;;;;;;;;;;;10.46;25.43;100302.97;5093017;28;20387;-42
2023/03/29 07:47:44;;;;;;;;;;;;;;;10.61;24.81;100302.91;5092894;28;20036;-41
2023/03/29 07:50:09;;;;;;;;;;;;;;;10.70;25.13;100284.97;5093038;28;19912;-42
2023/03/29 07:52:37;;;;;;;;;;;;;;;11.29;24.63;100289.97;5092811;28;19919;-41
2023/03/29 07:55:02;;;;;;;;;;;;;;;11.42;23.88;100286.53;5092346;28;20283;-42
2023/03/29 07:57:27;;;;;;;;;;;;;;;10.71;23.70;100297.28;5093074;28;19960;-42
2023/03/29 07:59:53;;;;;;;;;;;;;;;10.85;24.04;100285.75;5092895;28;19931;-42
2023/03/29 08:02:19;;;;;;;;;;;;;;;10.79;24.71;100283.00;5092758;28;20353;-42
2023/03/29 08:04:44;;;;;;;;;;;;;;;10.93;24.18;100247.50;5092944;28;19916;-42
2023/03/29 08:07:10;;;;;;;;;;;;;;;10.79;24.50;100291.81;5092620;28;19916;-41
2023/03/29 08:09:36;;;;;;;;;;;;;;;11.19;24.64;100289.47;5092620;28;19912;-43
2023/03/29 08:12:01;;;;;;;;;;;;;;;11.58;23.27;100292.59;5092868;28;19994;-42
2023/03/29 08:14:27;;;;;;;;;;;;;;;10.34;24.54;100283.22;5092615;28;19970;-43
2023/03/29 08:16:53;;;;;;;;;;;;;;;10.10;25.67;100282.50;5092453;28;19969;-43
2023/03/29 08:19:18;;;;;;;;;;;;;;;10.75;24.57;100277.25;5092561;28;19920;-43
2023/03/29 08:21:43;;;;;;;;;;;;;;;10.77;25.25;100277.88;5092491;28;19919;-42
2023/03/29 08:24:09;;;;;;;;;;;;;;;11.09;24.16;100292.47;5091999;28;20184;-43
2023/03/29 08:26:35;;;;;;;;;;;;;;;10.53;24.56;100293.22;5092362;28;19920;-42
2023/03/29 08:29:00;;;;;;;;;;;;;;;10.57;24.57;100293.66;5092451;28;19955;-42
2023/03/29 08:31:26;;;;;;;;;;;;;;;11.05;24.85;100271.75;5092491;28;19912;-42
2023/03/29 08:33:52;;;;;;;;;;;;;;;11.49;24.32;100286.59;5091916;28;19953;-44
2023/03/29 08:36:17;;;;;;;;;;;;;;;11.28;24.14;100264.31;5090870;28;19912;-42
2023/03/29 08:38:43;;;;;;;;;;;;;;;11.50;23.58;100290.91;5092176;28;19994;-42
2023/03/29 08:41:20;;;;;;;;;;;;;;;11.92;23.15;100283.78;5092059;28;20064;-41
2023/03/29 08:43:49;;;;;;;;;;;;;;;11.61;23.21;100289.53;5092272;28;19951;-42
2023/03/29 08:46:17;;;;;;;;;;;;;;;11.59;24.07;100279.06;5092057;28;19978;-43
2023/03/29 08:48:48;;;;;;;;;;;;;;;11.83;23.32;100275.06;5092169;28;19938;-42
2023/03/29 08:51:18;;;;;;;;;;;;;;;10.92;24.30;100285.78;5092039;28;19912;-42
2023/03/29 08:53:52;;;;;;;;;;;;;;;11.49;24.85;100274.09;5091659;28;19912;-43
2023/03/29 08:56:20;;;;;;;;;;;;;;;11.29;25.08;100279.31;5092029;28;19919;-44
2023/03/29 08:58:46;;;;;;;;;;;;;;;10.85;24.87;100283.06;5091783;28;19916;-44
2023/03/29 09:01:12;;;;;;;;;;;;;;;11.44;24.44;100270.34;5091656;28;20417;-43
2023/03/29 09:03:48;;;;;;;;;;;;;;;11.64;24.89;100281.97;5091924;28;19912;-44
2023/03/29 09:06:14;;;;;;;;;;;;;;;11.55;24.85;100283.94;5091683;28;20308;-46
2023/03/29 09:08:47;;;;;;;;;;;;;;;12.08;24.88;100290.59;5091979;28;19977;-42
2023/03/29 09:11:13;;;;;;;;;;;;;;;11.63;25.07;100285.66;5091766;28;19945;-42
2023/03/29 09:13:44;;;;;;;;;;;;;;;11.60;24.70;100294.03;5091419;28;19978;-41
2023/03/29 09:16:20;;;;;;;;;;;;;;;11.10;25.78;100299.44;5091529;28;19918;-42
2023/03/29 09:19:08;;;;;;;;;;;;;;;11.59;24.50;100288.91;5091721;28;19918;-43
2023/03/29 09:21:44;;;;;;;;;;;;;;;12.02;23.83;100284.22;5080489;28;19970;-43
2023/03/29 09:24:30;;;;;;;;;;;;;;;11.59;23.64;100289.72;5091157;28;20022;-42
2023/03/29 09:27:15;;;;;;;;;;;;;;;12.21;23.48;100274.63;5091420;28;19920;-48
2023/03/29 09:29:44;;;;;;;;;;;;;;;11.78;22.58;100285.50;5083590;28;19977;-48
2023/03/29 09:32:21;;;;;;;;;;;;;;;11.43;22.81;100282.06;5091317;28;20327;-41
2023/03/29 09:35:17;;;;;;;;;;;;;;;11.09;23.24;100278.34;5090868;28;19916;-41
2023/03/29 09:37:42;;;;;;;;;;;;;;;11.55;23.87;100283.94;5075516;28;19927;-42
2023/03/29 09:40:15;;;;;;;;;;;;;;;11.39;23.38;100284.28;5090864;28;19912;-39
2023/03/29 09:42:41;;;;;;;;;;;;;;;11.31;23.65;100273.78;5091554;28;20332;-41
2023/03/29 09:45:09;;;;;;;;;;;;;;;11.57;23.58;100285.59;5091556;28;20007;-41
2023/03/29 09:47:46;;;;;;;;;;;;;;;11.72;23.41;100272.97;5091296;28;19927;-41
2023/03/29 09:50:11;;;;;;;;;;;;;;;12.19;23.84;100258.00;5091387;28;20360;-43
2023/03/29 09:52:36;;;;;;;;;;;;;;;12.39;22.69;100268.69;5090832;28;19969;-42
2023/03/29 09:55:02;;;;;;;;;;;;;;;11.94;22.79;100273.72;5090623;28;20394;-43
2023/03/29 09:57:29;;;;;;;;;;;;;;;12.09;22.96;100258.38;5090421;28;19912;-41
2023/03/29 09:59:55;;;;;;;;;;;;;;;12.18;22.78;100263.53;5090761;28;20315;-40
2023/03/29 10:02:20;;;;;;;;;;;;;;;11.96;23.16;100263.69;5091118;28;20372;-40
2023/03/29 10:04:51;;;;;;;;;;;;;;;11.90;22.82;100253.81;5090911;28;19915;-41
2023/03/29 10:07:19;;;;;;;;;;;;;;;12.18;21.72;100256.34;5094780;28;19916;-43
2023/03/29 10:09:45;;;;;;;;;;;;;;;11.95;22.89;100251.34;5095067;28;20346;-42
2023/03/29 10:12:11;;;;;;;;;;;;;;;11.91;23.05;100258.91;5095028;28;20379;-43
2023/03/29 10:14:45;;;;;;;;;;;;;;;12.23;22.09;100247.75;5094638;28;19912;-43
2023/03/29 10:17:21;;;;;;;;;;;;;;;12.03;22.42;100243.19;5094667;28;19912;-42
2023/03/29 10:19:51;;;;;;;;;;;;;;;11.75;22.54;100221.94;5094994;28;20002;-42
2023/03/29 10:22:18;;;;;;;;;;;;;;;11.70;23.09;100241.16;5094466;28;19919;-42
2023/03/29 10:24:48;;;;;;;;;;;;;;;12.05;22.66;100238.47;5094711;28;19985;-42
2023/03/29 10:27:17;;;;;;;;;;;;;;;13.03;22.89;100235.25;5094511;28;19965;-42
2023/03/29 10:29:42;;;;;;;;;;;;;;;12.43;22.15;100213.06;5094728;28;19912;-42
2023/03/29 10:32:37;;;;;;;;;;;;;;;12.74;22.48;100228.50;5094521;28;19935;-42
2023/03/29 10:35:20;;;;;;;;;;;;;;;11.92;22.44;100217.09;5089471;28;19932;-41
2023/03/29 10:37:48;;;;;;;;;;;;;;;12.11;23.44;100210.97;5094658;28;20065;-41
2023/03/29 10:40:24;;;;;;;;;;;;;;;12.38;22.99;100199.53;5094362;28;19919;-42
2023/03/29 10:42:50;;;;;;;;;;;;;;;12.04;22.68;100212.00;5094444;28;19913;-42
2023/03/29 10:45:36;;;;;;;;;;;;;;;12.59;22.53;100203.84;5094096;28;19919;-39
2023/03/29 10:48:02;;;;;;;;;;;;;;;12.58;22.09;100191.53;5094240;28;19916;-42
2023/03/29 10:50:33;;;;;;;;;;;;;;;12.62;22.17;100180.25;5094152;28;19919;-44
2023/03/29 10:52:58;;;;;;;;;;;;;;;12.50;22.13;100185.34;5094246;28;20456;-42
2023/03/29 10:55:28;;;;;;;;;;;;;;;13.03;20.91;100189.84;5094190;28;19963;-41
2023/03/29 10:57:59;;;;;;;;;;;;;;;13.24;20.48;100179.91;5094333;28;19927;-42
2023/03/29 11:00:33;;;;;;;;;;;;;;;12.75;21.19;100187.41;5093780;28;20383;-41
2023/03/29 11:03:06;;;;;;;;;;;;;;;12.70;21.20;100176.53;5093958;28;20263;-41
2023/03/29 11:05:43;;;;;;;;;;;;;;;12.28;21.30;100168.72;5092479;28;20314;-40
2023/03/29 11:08:17;;;;;;;;;;;;;;;12.05;22.09;100152.25;5093754;28;20284;-41
2023/03/29 11:11:02;;;;;;;;;;;;;;;12.29;20.68;100150.88;5093909;28;19916;-41
2023/03/29 11:13:33;;;;;;;;;;;;;;;12.88;20.83;100144.66;5093764;28;19938;-42
2023/03/29 11:16:03;;;;;;;;;;;;;;;12.88;19.29;100139.31;5093359;28;19916;-41
2023/03/29 11:18:43;;;;;;;;;;;;;;;12.74;19.23;100132.38;5093604;28;19989;-41
2023/03/29 11:21:17;;;;;;;;;;;;;;;13.35;19.03;100133.88;5093526;28;19912;-42
2023/03/29 11:24:01;;;;;;;;;;;;;;;13.62;19.50;100131.06;5093127;28;19924;-42
2023/03/29 11:26:26;;;;;;;;;;;;;;;12.84;20.25;100132.75;5093477;28;20001;-44
2023/03/29 11:28:56;;;;;;;;;;;;;;;12.93;20.63;100122.66;5092787;28;19916;-43
2023/03/29 11:31:47;;;;;;;;;;;;;;;12.88;20.89;100115.25;5093467;28;19946;-40
2023/03/29 11:34:13;;;;;;;;;;;;;;;13.10;20.92;100115.03;5093292;28;20438;-42
2023/03/29 11:36:38;;;;;;;;;;;;;;;13.68;20.44;100116.81;5092874;28;19912;-41
2023/03/29 11:39:12;;;;;;;;;;;;;;;13.75;18.89;100109.59;5092694;28;19970;-40
2023/03/29 11:41:40;;;;;;;;;;;;;;;13.29;19.54;100114.13;5093292;28;19919;-42
2023/03/29 11:44:29;;;;;;;;;;;;;;;12.97;19.60;100137.25;5093105;28;20334;-42
2023/03/29 11:47:32;;;;;;;;;;;;;;;13.09;19.02;100106.16;5093119;28;19938;-41
2023/03/29 11:49:58;;;;;;;;;;;;;;;13.30;19.25;100101.59;5050248;28;20359;-41
2023/03/29 11:52:29;;;;;;;;;;;;;;;13.61;18.87;100100.84;5050172;28;19912;-42
2023/03/29 11:54:57;;;;;;;;;;;;;;;13.90;18.75;100103.94;5071218;28;19918;-42
2023/03/29 11:57:32;;;;;;;;;;;;;;;13.51;18.91;100083.59;5093135;28;19951;-41
2023/03/29 12:00:01;;;;;;;;;;;;;;;13.49;19.14;100081.97;5092960;28;19920;-41
2023/03/29 12:02:26;;;;;;;;;;;;;;;13.49;18.64;100081.16;5092621;28;19912;-41
2023/03/29 12:04:53;;;;;;;;;;;;;;;13.23;19.00;100082.91;5092698;28;19916;-41
2023/03/29 12:07:23;;;;;;;;;;;;;;;14.06;18.87;100089.22;5092349;28;19916;-41
2023/03/29 12:09:57;;;;;;;;;;;;;;;14.18;19.07;100083.97;5092555;28;19919;-43
2023/03/29 12:12:46;;;;;;;;;;;;;;;13.32;19.72;100080.00;5092788;28;19997;-41
2023/03/29 12:15:11;;;;;;;;;;;;;;;13.44;18.97;100067.59;5086533;28;19913;-42
2023/03/29 12:17:40;;;;;;;;;;;;;;;13.88;19.19;100068.56;5092307;28;19916;-43
2023/03/29 12:20:06;;;;;;;;;;;;;;;14.06;19.25;100087.34;5092045;28;20395;-41
2023/03/29 12:22:31;;;;;;;;;;;;;;;13.59;19.52;100069.97;5091975;28;19920;-40
2023/03/29 12:24:57;;;;;;;;;;;;;;;13.50;19.08;100066.75;5092191;28;19938;-43
2023/03/29 12:27:31;;;;;;;;;;;;;;;13.46;18.40;100076.22;5091923;28;19920;-41
2023/03/29 12:30:04;;;;;;;;;;;;;;;13.91;17.99;100073.47;5091446;28;19962;-41
2023/03/29 12:32:45;;;;;;;;;;;;;;;13.85;18.71;100067.13;5092084;28;20345;-42
2023/03/29 12:35:26;;;;;;;;;;;;;;;13.90;18.72;100063.81;5091861;28;19912;-42
2023/03/29 12:38:10;;;;;;;;;;;;;;;14.03;18.40;100071.75;5091490;28;19912;-41
2023/03/29 12:40:44;;;;;;;;;;;;;;;13.50;18.42;100072.09;5091656;28;19959;-42
2023/03/29 12:43:23;;;;;;;;;;;;;;;13.69;18.17;100047.09;5091948;28;19974;-42
2023/03/29 12:45:51;;;;;;;;;;;;;;;14.08;18.44;100045.13;5092121;28;20349;-42
2023/03/29 12:48:22;;;;;;;;;;;;;;;13.72;18.82;100053.03;5091828;28;20403;-42